sensor_id;sensor_type;location;lat;lon;timestamp;P1;durP1;ratioP1;P2;durP2;ratioP2
51236;SDS011;37312;47.550;18.818;2022-09-09T00:04:34;2.83;;;2.60;;
51236;SDS011;37312;47.550;18.818;2022-09-09T00:07:07;3.30;;;3.00;;
51236;SDS011;37312;47.550;18.818;2022-09-09T00:12:29;2.97;;;2.78;;
51236;SDS011;37312;47.550;18.818;2022-09-09T00:15:05;3.78;;;3.47;;
51236;SDS011;37312;47.550;18.818;2022-09-09T00:25:26;3.45;;;3.22;;
51236;SDS011;37312;47.550;18.818;2022-09-09T00:27:57;4.32;;;4.03;;
51236;SDS011;37312;47.550;18.818;2022-09-09T00:30:24;3.40;;;3.10;;
51236;SDS011;37312;47.550;18.818;2022-09-09T00:32:58;4.60;;;3.45;;
51236;SDS011;37312;47.550;18.818;2022-09-09T00:35:33;3.87;;;3.25;;
51236;SDS011;37312;47.550;18.818;2022-09-09T00:38:05;2.97;;;2.67;;
51236;SDS011;37312;47.550;18.818;2022-09-09T00:40:45;5.55;;;3.10;;
51236;SDS011;37312;47.550;18.818;2022-09-09T00:49:00;3.55;;;3.25;;
51236;SDS011;37312;47.550;18.818;2022-09-09T00:57:01;3.15;;;2.95;;
51236;SDS011;37312;47.550;18.818;2022-09-09T00:59:39;5.43;;;3.17;;
51236;SDS011;37312;47.550;18.818;2022-09-09T01:02:26;3.10;;;2.80;;
51236;SDS011;37312;47.550;18.818;2022-09-09T01:05:02;3.20;;;2.90;;
51236;SDS011;37312;47.550;18.818;2022-09-09T01:07:36;4.82;;;3.03;;
51236;SDS011;37312;47.550;18.818;2022-09-09T01:12:34;3.47;;;3.17;;
51236;SDS011;37312;47.550;18.818;2022-09-09T01:15:11;3.25;;;3.05;;
51236;SDS011;37312;47.550;18.818;2022-09-09T01:20:13;2.95;;;2.75;;
51236;SDS011;37312;47.550;18.818;2022-09-09T01:23:02;3.12;;;2.87;;
51236;SDS011;37312;47.550;18.818;2022-09-09T01:28:42;3.50;;;3.30;;
51236;SDS011;37312;47.550;18.818;2022-09-09T01:31:12;4.28;;;3.87;;
51236;SDS011;37312;47.550;18.818;2022-09-09T01:33:42;3.20;;;3.00;;
51236;SDS011;37312;47.550;18.818;2022-09-09T01:38:34;4.03;;;3.83;;
51236;SDS011;37312;47.550;18.818;2022-09-09T01:41:01;3.85;;;3.65;;
51236;SDS011;37312;47.550;18.818;2022-09-09T01:43:27;4.12;;;3.72;;
51236;SDS011;37312;47.550;18.818;2022-09-09T01:45:54;2.87;;;2.67;;
51236;SDS011;37312;47.550;18.818;2022-09-09T01:48:24;3.70;;;3.50;;
51236;SDS011;37312;47.550;18.818;2022-09-09T01:50:51;4.75;;;3.75;;
51236;SDS011;37312;47.550;18.818;2022-09-09T01:53:18;3.67;;;3.47;;
51236;SDS011;37312;47.550;18.818;2022-09-09T02:04:13;3.97;;;3.62;;
51236;SDS011;37312;47.550;18.818;2022-09-09T02:06:49;3.65;;;3.35;;
51236;SDS011;37312;47.550;18.818;2022-09-09T02:09:19;3.85;;;3.55;;
51236;SDS011;37312;47.550;18.818;2022-09-09T02:11:49;4.10;;;3.80;;
51236;SDS011;37312;47.550;18.818;2022-09-09T02:14:25;4.43;;;4.12;;
51236;SDS011;37312;47.550;18.818;2022-09-09T02:17:20;4.82;;;4.53;;
51236;SDS011;37312;47.550;18.818;2022-09-09T02:19:48;3.83;;;3.53;;
51236;SDS011;37312;47.550;18.818;2022-09-09T02:22:18;5.65;;;5.15;;
51236;SDS011;37312;47.550;18.818;2022-09-09T02:24:47;4.95;;;4.55;;
51236;SDS011;37312;47.550;18.818;2022-09-09T02:27:17;5.12;;;4.53;;
51236;SDS011;37312;47.550;18.818;2022-09-09T02:29:44;4.25;;;3.95;;
51236;SDS011;37312;47.550;18.818;2022-09-09T02:32:14;4.70;;;4.15;;
51236;SDS011;37312;47.550;18.818;2022-09-09T02:34:48;5.20;;;4.80;;
51236;SDS011;37312;47.550;18.818;2022-09-09T02:37:20;5.60;;;4.10;;
51236;SDS011;37312;47.550;18.818;2022-09-09T02:39:50;4.50;;;4.20;;
51236;SDS011;37312;47.550;18.818;2022-09-09T02:42:16;5.05;;;4.65;;
51236;SDS011;37312;47.550;18.818;2022-09-09T02:58:09;5.53;;;5.15;;
51236;SDS011;37312;47.550;18.818;2022-09-09T03:00:38;6.10;;;5.70;;
51236;SDS011;37312;47.550;18.818;2022-09-09T03:03:05;6.78;;;6.32;;
51236;SDS011;37312;47.550;18.818;2022-09-09T03:05:34;7.72;;;7.03;;
51236;SDS011;37312;47.550;18.818;2022-09-09T03:08:01;6.72;;;6.07;;
51236;SDS011;37312;47.550;18.818;2022-09-09T03:10:27;6.82;;;5.85;;
51236;SDS011;37312;47.550;18.818;2022-09-09T03:12:54;5.80;;;5.32;;
51236;SDS011;37312;47.550;18.818;2022-09-09T03:15:20;7.18;;;6.68;;
51236;SDS011;37312;47.550;18.818;2022-09-09T03:20:12;8.45;;;7.45;;
51236;SDS011;37312;47.550;18.818;2022-09-09T03:22:38;7.95;;;7.35;;
51236;SDS011;37312;47.550;18.818;2022-09-09T03:25:04;7.90;;;7.40;;
51236;SDS011;37312;47.550;18.818;2022-09-09T03:27:31;7.18;;;6.75;;
51236;SDS011;37312;47.550;18.818;2022-09-09T03:29:58;8.10;;;7.60;;
51236;SDS011;37312;47.550;18.818;2022-09-09T03:32:24;13.18;;;9.00;;
51236;SDS011;37312;47.550;18.818;2022-09-09T03:34:51;10.60;;;9.70;;
51236;SDS011;37312;47.550;18.818;2022-09-09T03:37:18;9.35;;;8.65;;
51236;SDS011;37312;47.550;18.818;2022-09-09T03:39:45;10.18;;;9.38;;
51236;SDS011;37312;47.550;18.818;2022-09-09T03:44:44;12.25;;;11.25;;
51236;SDS011;37312;47.550;18.818;2022-09-09T03:47:18;10.70;;;9.70;;
51236;SDS011;37312;47.550;18.818;2022-09-09T03:49:47;10.80;;;10.00;;
51236;SDS011;37312;47.550;18.818;2022-09-09T03:52:14;11.02;;;10.23;;
51236;SDS011;37312;47.550;18.818;2022-09-09T03:54:40;11.43;;;10.43;;
51236;SDS011;37312;47.550;18.818;2022-09-09T03:57:10;11.43;;;10.52;;
51236;SDS011;37312;47.550;18.818;2022-09-09T03:59:37;10.95;;;10.05;;
51236;SDS011;37312;47.550;18.818;2022-09-09T04:02:03;11.93;;;10.80;;
51236;SDS011;37312;47.550;18.818;2022-09-09T04:06:55;9.43;;;8.70;;
51236;SDS011;37312;47.550;18.818;2022-09-09T04:09:21;10.35;;;9.50;;
51236;SDS011;37312;47.550;18.818;2022-09-09T04:11:48;9.57;;;8.73;;
51236;SDS011;37312;47.550;18.818;2022-09-09T04:14:14;11.40;;;10.50;;
51236;SDS011;37312;47.550;18.818;2022-09-09T04:19:10;10.38;;;9.60;;
51236;SDS011;37312;47.550;18.818;2022-09-09T04:21:39;10.43;;;9.70;;
51236;SDS011;37312;47.550;18.818;2022-09-09T04:24:07;11.50;;;10.48;;
51236;SDS011;37312;47.550;18.818;2022-09-09T04:26:33;12.82;;;11.70;;
51236;SDS011;37312;47.550;18.818;2022-09-09T04:29:02;10.55;;;9.75;;
51236;SDS011;37312;47.550;18.818;2022-09-09T04:31:30;12.20;;;11.30;;
51236;SDS011;37312;47.550;18.818;2022-09-09T04:33:56;12.25;;;11.30;;
51236;SDS011;37312;47.550;18.818;2022-09-09T04:36:22;11.70;;;10.75;;
51236;SDS011;37312;47.550;18.818;2022-09-09T04:38:48;11.07;;;10.13;;
51236;SDS011;37312;47.550;18.818;2022-09-09T04:41:14;10.35;;;9.45;;
51236;SDS011;37312;47.550;18.818;2022-09-09T04:43:42;12.27;;;11.18;;
51236;SDS011;37312;47.550;18.818;2022-09-09T04:46:08;11.45;;;10.55;;
51236;SDS011;37312;47.550;18.818;2022-09-09T04:48:34;11.70;;;10.80;;
51236;SDS011;37312;47.550;18.818;2022-09-09T04:56:00;10.15;;;9.30;;
51236;SDS011;37312;47.550;18.818;2022-09-09T04:58:30;10.05;;;9.30;;
51236;SDS011;37312;47.550;18.818;2022-09-09T05:03:28;9.57;;;8.82;;
51236;SDS011;37312;47.550;18.818;2022-09-09T05:08:22;9.32;;;8.50;;
51236;SDS011;37312;47.550;18.818;2022-09-09T05:10:48;8.65;;;7.95;;
51236;SDS011;37312;47.550;18.818;2022-09-09T05:13:14;9.38;;;8.68;;
51236;SDS011;37312;47.550;18.818;2022-09-09T05:18:08;8.70;;;7.97;;
51236;SDS011;37312;47.550;18.818;2022-09-09T05:23:00;8.63;;;7.97;;
51236;SDS011;37312;47.550;18.818;2022-09-09T05:27:51;8.57;;;7.97;;
51236;SDS011;37312;47.550;18.818;2022-09-09T05:30:18;8.80;;;8.07;;
51236;SDS011;37312;47.550;18.818;2022-09-09T05:32:45;7.93;;;7.32;;
51236;SDS011;37312;47.550;18.818;2022-09-09T05:35:12;8.23;;;7.35;;
51236;SDS011;37312;47.550;18.818;2022-09-09T05:37:38;10.07;;;7.85;;
51236;SDS011;37312;47.550;18.818;2022-09-09T05:40:05;7.95;;;7.37;;
51236;SDS011;37312;47.550;18.818;2022-09-09T05:42:32;7.85;;;7.25;;
51236;SDS011;37312;47.550;18.818;2022-09-09T05:47:23;8.07;;;7.47;;
51236;SDS011;37312;47.550;18.818;2022-09-09T05:49:50;8.23;;;7.43;;
51236;SDS011;37312;47.550;18.818;2022-09-09T05:54:41;6.93;;;6.43;;
51236;SDS011;37312;47.550;18.818;2022-09-09T05:57:08;8.50;;;7.85;;
51236;SDS011;37312;47.550;18.818;2022-09-09T06:02:00;7.55;;;6.87;;
51236;SDS011;37312;47.550;18.818;2022-09-09T06:06:51;6.55;;;6.05;;
51236;SDS011;37312;47.550;18.818;2022-09-09T06:09:18;7.07;;;6.57;;
51236;SDS011;37312;47.550;18.818;2022-09-09T06:14:09;7.00;;;6.45;;
51236;SDS011;37312;47.550;18.818;2022-09-09T06:16:35;8.52;;;6.25;;
51236;SDS011;37312;47.550;18.818;2022-09-09T06:19:03;8.95;;;7.10;;
51236;SDS011;37312;47.550;18.818;2022-09-09T06:21:30;6.32;;;5.45;;
51236;SDS011;37312;47.550;18.818;2022-09-09T06:24:01;6.82;;;6.32;;
51236;SDS011;37312;47.550;18.818;2022-09-09T06:26:31;6.87;;;6.28;;
51236;SDS011;37312;47.550;18.818;2022-09-09T06:28:59;10.20;;;6.12;;
51236;SDS011;37312;47.550;18.818;2022-09-09T06:31:26;6.47;;;6.07;;
51236;SDS011;37312;47.550;18.818;2022-09-09T06:33:56;6.45;;;5.53;;
51236;SDS011;37312;47.550;18.818;2022-09-09T06:36:24;8.80;;;5.70;;
51236;SDS011;37312;47.550;18.818;2022-09-09T06:38:51;6.57;;;6.07;;
51236;SDS011;37312;47.550;18.818;2022-09-09T06:41:18;5.55;;;5.05;;
51236;SDS011;37312;47.550;18.818;2022-09-09T06:43:46;4.78;;;4.37;;
51236;SDS011;37312;47.550;18.818;2022-09-09T06:46:13;5.80;;;4.47;;
51236;SDS011;37312;47.550;18.818;2022-09-09T06:48:41;5.28;;;4.78;;
51236;SDS011;37312;47.550;18.818;2022-09-09T06:51:16;5.72;;;5.32;;
51236;SDS011;37312;47.550;18.818;2022-09-09T06:53:46;5.70;;;5.20;;
51236;SDS011;37312;47.550;18.818;2022-09-09T06:56:19;5.72;;;4.87;;
51236;SDS011;37312;47.550;18.818;2022-09-09T06:58:47;5.55;;;5.05;;
51236;SDS011;37312;47.550;18.818;2022-09-09T07:01:15;6.12;;;5.65;;
51236;SDS011;37312;47.550;18.818;2022-09-09T07:03:42;6.97;;;5.40;;
51236;SDS011;37312;47.550;18.818;2022-09-09T07:06:15;6.30;;;5.47;;
51236;SDS011;37312;47.550;18.818;2022-09-09T07:08:43;7.32;;;5.20;;
51236;SDS011;37312;47.550;18.818;2022-09-09T07:11:09;5.28;;;4.87;;
51236;SDS011;37312;47.550;18.818;2022-09-09T07:13:36;5.80;;;5.30;;
51236;SDS011;37312;47.550;18.818;2022-09-09T07:16:13;6.50;;;5.65;;
51236;SDS011;37312;47.550;18.818;2022-09-09T07:18:40;8.38;;;4.60;;
51236;SDS011;37312;47.550;18.818;2022-09-09T07:21:07;5.70;;;4.60;;
51236;SDS011;37312;47.550;18.818;2022-09-09T07:23:37;4.47;;;4.07;;
51236;SDS011;37312;47.550;18.818;2022-09-09T07:26:14;4.97;;;4.47;;
51236;SDS011;37312;47.550;18.818;2022-09-09T07:28:42;3.15;;;2.80;;
51236;SDS011;37312;47.550;18.818;2022-09-09T07:31:15;3.00;;;2.65;;
51236;SDS011;37312;47.550;18.818;2022-09-09T07:33:43;3.78;;;3.47;;
51236;SDS011;37312;47.550;18.818;2022-09-09T07:41:09;2.40;;;2.30;;
51236;SDS011;37312;47.550;18.818;2022-09-09T07:43:38;4.87;;;2.75;;
51236;SDS011;37312;47.550;18.818;2022-09-09T07:46:05;3.28;;;3.08;;
51236;SDS011;37312;47.550;18.818;2022-09-09T07:48:34;3.35;;;3.15;;
51236;SDS011;37312;47.550;18.818;2022-09-09T07:51:08;3.22;;;2.92;;
51236;SDS011;37312;47.550;18.818;2022-09-09T07:53:40;3.08;;;2.87;;
51236;SDS011;37312;47.550;18.818;2022-09-09T07:56:06;4.00;;;3.00;;
51236;SDS011;37312;47.550;18.818;2022-09-09T07:58:37;2.40;;;2.20;;
51236;SDS011;37312;47.550;18.818;2022-09-09T08:01:08;6.30;;;3.08;;
51236;SDS011;37312;47.550;18.818;2022-09-09T08:03:35;2.50;;;1.98;;
51236;SDS011;37312;47.550;18.818;2022-09-09T08:06:05;2.42;;;2.33;;
51236;SDS011;37312;47.550;18.818;2022-09-09T08:08:33;1.77;;;1.67;;
51236;SDS011;37312;47.550;18.818;2022-09-09T08:11:05;7.35;;;2.53;;
51236;SDS011;37312;47.550;18.818;2022-09-09T08:13:37;1.87;;;1.70;;
51236;SDS011;37312;47.550;18.818;2022-09-09T08:16:08;3.85;;;1.67;;
51236;SDS011;37312;47.550;18.818;2022-09-09T08:18:35;1.37;;;1.27;;
51236;SDS011;37312;47.550;18.818;2022-09-09T08:21:05;2.47;;;1.33;;
51236;SDS011;37312;47.550;18.818;2022-09-09T08:23:40;1.27;;;1.17;;
51236;SDS011;37312;47.550;18.818;2022-09-09T08:26:14;2.62;;;2.40;;
51236;SDS011;37312;47.550;18.818;2022-09-09T08:28:42;6.53;;;1.67;;
51236;SDS011;37312;47.550;18.818;2022-09-09T08:31:11;2.30;;;1.10;;
51236;SDS011;37312;47.550;18.818;2022-09-09T08:33:43;1.25;;;1.15;;
51236;SDS011;37312;47.550;18.818;2022-09-09T08:36:12;1.20;;;1.10;;
51236;SDS011;37312;47.550;18.818;2022-09-09T08:38:41;1.27;;;1.15;;
51236;SDS011;37312;47.550;18.818;2022-09-09T08:43:51;1.45;;;1.35;;
51236;SDS011;37312;47.550;18.818;2022-09-09T08:52:18;3.22;;;1.00;;
51236;SDS011;37312;47.550;18.818;2022-09-09T08:54:47;1.25;;;0.70;;
51236;SDS011;37312;47.550;18.818;2022-09-09T08:57:14;1.37;;;1.23;;
51236;SDS011;37312;47.550;18.818;2022-09-09T08:59:46;0.88;;;0.88;;
51236;SDS011;37312;47.550;18.818;2022-09-09T09:09:54;2.30;;;1.02;;
51236;SDS011;37312;47.550;18.818;2022-09-09T09:12:28;10.23;;;1.35;;
51236;SDS011;37312;47.550;18.818;2022-09-09T09:15:00;1.67;;;1.50;;
51236;SDS011;37312;47.550;18.818;2022-09-09T09:17:27;4.60;;;1.27;;
51236;SDS011;37312;47.550;18.818;2022-09-09T09:19:58;1.02;;;0.93;;
51236;SDS011;37312;47.550;18.818;2022-09-09T09:25:23;1.20;;;1.10;;
51236;SDS011;37312;47.550;18.818;2022-09-09T09:30:44;1.08;;;0.98;;
51236;SDS011;37312;47.550;18.818;2022-09-09T09:33:17;1.50;;;1.40;;
51236;SDS011;37312;47.550;18.818;2022-09-09T09:35:49;1.33;;;0.93;;
51236;SDS011;37312;47.550;18.818;2022-09-09T09:38:17;1.35;;;1.20;;
51236;SDS011;37312;47.550;18.818;2022-09-09T09:40:51;1.10;;;1.00;;
51236;SDS011;37312;47.550;18.818;2022-09-09T09:43:31;0.90;;;0.80;;
51236;SDS011;37312;47.550;18.818;2022-09-09T09:45:59;0.85;;;0.85;;
51236;SDS011;37312;47.550;18.818;2022-09-09T09:48:26;2.37;;;0.70;;
51236;SDS011;37312;47.550;18.818;2022-09-09T09:53:34;0.75;;;0.75;;
51236;SDS011;37312;47.550;18.818;2022-09-09T09:56:05;1.17;;;0.90;;
51236;SDS011;37312;47.550;18.818;2022-09-09T09:58:38;4.03;;;0.80;;
51236;SDS011;37312;47.550;18.818;2022-09-09T10:01:22;0.95;;;0.85;;
51236;SDS011;37312;47.550;18.818;2022-09-09T10:03:53;1.87;;;1.10;;
51236;SDS011;37312;47.550;18.818;2022-09-09T10:06:30;1.17;;;0.90;;
51236;SDS011;37312;47.550;18.818;2022-09-09T10:08:59;0.80;;;0.62;;
51236;SDS011;37312;47.550;18.818;2022-09-09T10:14:21;1.00;;;1.00;;
51236;SDS011;37312;47.550;18.818;2022-09-09T10:19:31;1.40;;;1.30;;
51236;SDS011;37312;47.550;18.818;2022-09-09T10:30:18;2.03;;;0.90;;
51236;SDS011;37312;47.550;18.818;2022-09-09T10:33:04;5.32;;;1.60;;
51236;SDS011;37312;47.550;18.818;2022-09-09T10:35:47;0.98;;;0.75;;
51236;SDS011;37312;47.550;18.818;2022-09-09T10:38:47;2.80;;;0.95;;
51236;SDS011;37312;47.550;18.818;2022-09-09T10:46:52;1.17;;;1.08;;
51236;SDS011;37312;47.550;18.818;2022-09-09T10:49:30;1.62;;;1.42;;
51236;SDS011;37312;47.550;18.818;2022-09-09T10:55:00;1.00;;;0.98;;
51236;SDS011;37312;47.550;18.818;2022-09-09T11:03:15;2.37;;;1.08;;
51236;SDS011;37312;47.550;18.818;2022-09-09T11:06:01;1.10;;;0.88;;
51236;SDS011;37312;47.550;18.818;2022-09-09T11:08:31;0.70;;;0.70;;
51236;SDS011;37312;47.550;18.818;2022-09-09T11:11:02;2.00;;;1.23;;
51236;SDS011;37312;47.550;18.818;2022-09-09T11:13:35;1.17;;;1.08;;
51236;SDS011;37312;47.550;18.818;2022-09-09T11:18:43;1.48;;;0.85;;
51236;SDS011;37312;47.550;18.818;2022-09-09T11:21:22;0.60;;;0.60;;
51236;SDS011;37312;47.550;18.818;2022-09-09T11:23:54;2.35;;;1.30;;
51236;SDS011;37312;47.550;18.818;2022-09-09T11:26:28;1.35;;;0.70;;
51236;SDS011;37312;47.550;18.818;2022-09-09T11:34:36;1.25;;;1.02;;
51236;SDS011;37312;47.550;18.818;2022-09-09T11:43:03;0.65;;;0.60;;
51236;SDS011;37312;47.550;18.818;2022-09-09T11:45:51;1.02;;;0.82;;
51236;SDS011;37312;47.550;18.818;2022-09-09T11:48:28;0.62;;;0.62;;
51236;SDS011;37312;47.550;18.818;2022-09-09T11:50:58;1.25;;;1.00;;
51236;SDS011;37312;47.550;18.818;2022-09-09T11:53:28;0.75;;;0.75;;
51236;SDS011;37312;47.550;18.818;2022-09-09T11:56:05;1.33;;;0.75;;
51236;SDS011;37312;47.550;18.818;2022-09-09T11:58:44;3.85;;;0.98;;
51236;SDS011;37312;47.550;18.818;2022-09-09T12:17:09;1.35;;;1.25;;
51236;SDS011;37312;47.550;18.818;2022-09-09T12:19:41;1.30;;;0.98;;
51236;SDS011;37312;47.550;18.818;2022-09-09T12:22:27;7.72;;;1.33;;
51236;SDS011;37312;47.550;18.818;2022-09-09T12:33:19;1.35;;;0.82;;
51236;SDS011;37312;47.550;18.818;2022-09-09T12:35:49;7.40;;;0.90;;
51236;SDS011;37312;47.550;18.818;2022-09-09T12:38:39;1.12;;;0.73;;
51236;SDS011;37312;47.550;18.818;2022-09-09T12:41:06;0.80;;;0.80;;
51236;SDS011;37312;47.550;18.818;2022-09-09T12:43:44;1.20;;;0.80;;
51236;SDS011;37312;47.550;18.818;2022-09-09T12:46:14;0.90;;;0.90;;
51236;SDS011;37312;47.550;18.818;2022-09-09T12:48:50;1.05;;;0.77;;
51236;SDS011;37312;47.550;18.818;2022-09-09T12:51:18;1.45;;;0.80;;
51236;SDS011;37312;47.550;18.818;2022-09-09T12:53:50;1.60;;;0.88;;
51236;SDS011;37312;47.550;18.818;2022-09-09T12:56:19;0.68;;;0.47;;
51236;SDS011;37312;47.550;18.818;2022-09-09T12:58:47;1.00;;;0.80;;
51236;SDS011;37312;47.550;18.818;2022-09-09T13:01:21;4.87;;;1.20;;
51236;SDS011;37312;47.550;18.818;2022-09-09T13:03:54;0.70;;;0.70;;
51236;SDS011;37312;47.550;18.818;2022-09-09T13:06:29;0.95;;;0.82;;
51236;SDS011;37312;47.550;18.818;2022-09-09T13:08:57;1.12;;;0.60;;
51236;SDS011;37312;47.550;18.818;2022-09-09T13:11:43;0.70;;;0.70;;
51236;SDS011;37312;47.550;18.818;2022-09-09T13:14:28;0.93;;;0.60;;
51236;SDS011;37312;47.550;18.818;2022-09-09T13:17:01;1.20;;;1.10;;
51236;SDS011;37312;47.550;18.818;2022-09-09T13:22:14;1.27;;;0.80;;
51236;SDS011;37312;47.550;18.818;2022-09-09T13:24:46;0.90;;;0.82;;
51236;SDS011;37312;47.550;18.818;2022-09-09T13:30:19;1.85;;;1.12;;
51236;SDS011;37312;47.550;18.818;2022-09-09T13:33:00;1.58;;;0.75;;
51236;SDS011;37312;47.550;18.818;2022-09-09T13:35:26;0.73;;;0.73;;
51236;SDS011;37312;47.550;18.818;2022-09-09T13:37:52;1.00;;;0.88;;
51236;SDS011;37312;47.550;18.818;2022-09-09T13:40:20;0.93;;;0.75;;
51236;SDS011;37312;47.550;18.818;2022-09-09T13:42:47;0.80;;;0.65;;
51236;SDS011;37312;47.550;18.818;2022-09-09T13:45:17;1.00;;;0.60;;
51236;SDS011;37312;47.550;18.818;2022-09-09T13:47:48;1.30;;;0.60;;
51236;SDS011;37312;47.550;18.818;2022-09-09T13:50:21;0.85;;;0.73;;
51236;SDS011;37312;47.550;18.818;2022-09-09T13:52:53;3.20;;;0.80;;
51236;SDS011;37312;47.550;18.818;2022-09-09T13:55:21;0.77;;;0.62;;
51236;SDS011;37312;47.550;18.818;2022-09-09T13:57:59;0.90;;;0.68;;
51236;SDS011;37312;47.550;18.818;2022-09-09T14:00:28;0.80;;;0.70;;
51236;SDS011;37312;47.550;18.818;2022-09-09T14:02:55;1.05;;;0.70;;
51236;SDS011;37312;47.550;18.818;2022-09-09T14:05:21;0.90;;;0.70;;
51236;SDS011;37312;47.550;18.818;2022-09-09T14:07:48;1.05;;;0.95;;
51236;SDS011;37312;47.550;18.818;2022-09-09T14:10:15;1.25;;;0.95;;
51236;SDS011;37312;47.550;18.818;2022-09-09T14:12:41;0.88;;;0.62;;
51236;SDS011;37312;47.550;18.818;2022-09-09T14:15:07;0.65;;;0.60;;
51236;SDS011;37312;47.550;18.818;2022-09-09T14:17:35;1.00;;;0.90;;
51236;SDS011;37312;47.550;18.818;2022-09-09T14:20:02;0.60;;;0.50;;
51236;SDS011;37312;47.550;18.818;2022-09-09T14:22:34;0.70;;;0.62;;
51236;SDS011;37312;47.550;18.818;2022-09-09T14:25:02;1.25;;;0.80;;
51236;SDS011;37312;47.550;18.818;2022-09-09T14:27:28;1.65;;;0.90;;
51236;SDS011;37312;47.550;18.818;2022-09-09T14:29:55;1.52;;;0.98;;
51236;SDS011;37312;47.550;18.818;2022-09-09T14:32:21;2.55;;;0.70;;
51236;SDS011;37312;47.550;18.818;2022-09-09T14:34:47;0.95;;;0.90;;
51236;SDS011;37312;47.550;18.818;2022-09-09T14:37:15;0.98;;;0.82;;
51236;SDS011;37312;47.550;18.818;2022-09-09T14:39:43;0.90;;;0.77;;
51236;SDS011;37312;47.550;18.818;2022-09-09T14:42:13;3.35;;;1.27;;
51236;SDS011;37312;47.550;18.818;2022-09-09T14:44:40;0.90;;;0.80;;
51236;SDS011;37312;47.550;18.818;2022-09-09T14:47:06;1.50;;;1.37;;
51236;SDS011;37312;47.550;18.818;2022-09-09T14:49:36;0.70;;;0.60;;
51236;SDS011;37312;47.550;18.818;2022-09-09T14:52:03;3.28;;;0.98;;
51236;SDS011;37312;47.550;18.818;2022-09-09T14:54:30;0.62;;;0.52;;
51236;SDS011;37312;47.550;18.818;2022-09-09T14:56:57;1.58;;;1.05;;
51236;SDS011;37312;47.550;18.818;2022-09-09T14:59:24;2.00;;;0.90;;
51236;SDS011;37312;47.550;18.818;2022-09-09T15:01:50;0.60;;;0.60;;
51236;SDS011;37312;47.550;18.818;2022-09-09T15:04:16;2.78;;;0.98;;
51236;SDS011;37312;47.550;18.818;2022-09-09T15:06:45;2.53;;;0.75;;
51236;SDS011;37312;47.550;18.818;2022-09-09T15:09:14;0.82;;;0.65;;
51236;SDS011;37312;47.550;18.818;2022-09-09T15:11:40;1.35;;;1.08;;
51236;SDS011;37312;47.550;18.818;2022-09-09T15:14:07;1.42;;;0.95;;
51236;SDS011;37312;47.550;18.818;2022-09-09T15:16:34;1.00;;;0.90;;
51236;SDS011;37312;47.550;18.818;2022-09-09T15:19:01;8.82;;;1.10;;
51236;SDS011;37312;47.550;18.818;2022-09-09T15:21:29;5.78;;;1.05;;
51236;SDS011;37312;47.550;18.818;2022-09-09T15:23:56;0.60;;;0.60;;
51236;SDS011;37312;47.550;18.818;2022-09-09T15:26:23;4.20;;;1.50;;
51236;SDS011;37312;47.550;18.818;2022-09-09T15:28:49;5.78;;;1.23;;
51236;SDS011;37312;47.550;18.818;2022-09-09T15:31:17;0.68;;;0.60;;
51236;SDS011;37312;47.550;18.818;2022-09-09T15:33:51;1.02;;;0.82;;
51236;SDS011;37312;47.550;18.818;2022-09-09T15:36:40;1.95;;;0.90;;
51236;SDS011;37312;47.550;18.818;2022-09-09T15:39:08;4.10;;;0.77;;
51236;SDS011;37312;47.550;18.818;2022-09-09T15:41:38;0.50;;;0.47;;
51236;SDS011;37312;47.550;18.818;2022-09-09T15:44:05;1.85;;;0.93;;
51236;SDS011;37312;47.550;18.818;2022-09-09T15:46:32;1.70;;;0.93;;
51236;SDS011;37312;47.550;18.818;2022-09-09T15:49:16;1.45;;;1.02;;
51236;SDS011;37312;47.550;18.818;2022-09-09T15:51:44;3.05;;;0.98;;
51236;SDS011;37312;47.550;18.818;2022-09-09T15:54:25;0.75;;;0.75;;
51236;SDS011;37312;47.550;18.818;2022-09-09T15:56:52;0.60;;;0.60;;
51236;SDS011;37312;47.550;18.818;2022-09-09T15:59:24;0.60;;;0.60;;
51236;SDS011;37312;47.550;18.818;2022-09-09T16:01:51;1.00;;;0.60;;
51236;SDS011;37312;47.550;18.818;2022-09-09T16:04:18;1.00;;;0.90;;
51236;SDS011;37312;47.550;18.818;2022-09-09T16:06:52;3.87;;;0.90;;
51236;SDS011;37312;47.550;18.818;2022-09-09T16:09:26;0.70;;;0.70;;
51236;SDS011;37312;47.550;18.818;2022-09-09T16:11:55;1.70;;;1.42;;
51236;SDS011;37312;47.550;18.818;2022-09-09T16:14:22;1.52;;;1.42;;
51236;SDS011;37312;47.550;18.818;2022-09-09T16:16:47;0.70;;;0.50;;
51236;SDS011;37312;47.550;18.818;2022-09-09T16:19:14;4.40;;;1.10;;
51236;SDS011;37312;47.550;18.818;2022-09-09T16:21:41;4.32;;;0.98;;
51236;SDS011;37312;47.550;18.818;2022-09-09T16:24:10;4.72;;;1.45;;
51236;SDS011;37312;47.550;18.818;2022-09-09T16:26:38;2.70;;;1.20;;
51236;SDS011;37312;47.550;18.818;2022-09-09T16:29:10;3.95;;;1.37;;
51236;SDS011;37312;47.550;18.818;2022-09-09T16:31:37;1.85;;;1.30;;
51236;SDS011;37312;47.550;18.818;2022-09-09T16:34:03;0.98;;;0.80;;
51236;SDS011;37312;47.550;18.818;2022-09-09T16:36:30;1.58;;;1.33;;
51236;SDS011;37312;47.550;18.818;2022-09-09T16:39:03;6.10;;;1.30;;
51236;SDS011;37312;47.550;18.818;2022-09-09T16:41:30;4.70;;;0.98;;
51236;SDS011;37312;47.550;18.818;2022-09-09T16:43:58;5.68;;;1.65;;
51236;SDS011;37312;47.550;18.818;2022-09-09T16:46:26;1.12;;;1.02;;
51236;SDS011;37312;47.550;18.818;2022-09-09T16:48:53;2.22;;;1.30;;
51236;SDS011;37312;47.550;18.818;2022-09-09T16:51:23;1.23;;;0.82;;
51236;SDS011;37312;47.550;18.818;2022-09-09T16:53:51;3.25;;;1.92;;
51236;SDS011;37312;47.550;18.818;2022-09-09T16:56:22;2.92;;;1.15;;
51236;SDS011;37312;47.550;18.818;2022-09-09T16:58:52;1.25;;;1.08;;
51236;SDS011;37312;47.550;18.818;2022-09-09T17:01:24;5.10;;;1.83;;
51236;SDS011;37312;47.550;18.818;2022-09-09T17:03:55;2.75;;;1.30;;
51236;SDS011;37312;47.550;18.818;2022-09-09T17:06:22;2.62;;;1.73;;
51236;SDS011;37312;47.550;18.818;2022-09-09T17:08:53;4.50;;;1.62;;
51236;SDS011;37312;47.550;18.818;2022-09-09T17:11:23;9.15;;;1.60;;
51236;SDS011;37312;47.550;18.818;2022-09-09T17:13:50;10.90;;;2.08;;
51236;SDS011;37312;47.550;18.818;2022-09-09T17:16:17;2.42;;;2.00;;
51236;SDS011;37312;47.550;18.818;2022-09-09T17:18:46;1.40;;;1.30;;
51236;SDS011;37312;47.550;18.818;2022-09-09T17:21:14;2.35;;;1.37;;
51236;SDS011;37312;47.550;18.818;2022-09-09T17:23:42;1.65;;;1.23;;
51236;SDS011;37312;47.550;18.818;2022-09-09T17:26:09;5.37;;;2.53;;
51236;SDS011;37312;47.550;18.818;2022-09-09T17:28:38;2.75;;;1.10;;
51236;SDS011;37312;47.550;18.818;2022-09-09T17:31:09;2.25;;;1.12;;
51236;SDS011;37312;47.550;18.818;2022-09-09T17:33:37;2.95;;;1.30;;
51236;SDS011;37312;47.550;18.818;2022-09-09T17:36:09;2.08;;;1.20;;
51236;SDS011;37312;47.550;18.818;2022-09-09T17:38:43;1.50;;;1.35;;
51236;SDS011;37312;47.550;18.818;2022-09-09T17:41:31;2.20;;;1.10;;
51236;SDS011;37312;47.550;18.818;2022-09-09T17:43:59;2.20;;;1.45;;
51236;SDS011;37312;47.550;18.818;2022-09-09T17:46:32;4.12;;;1.83;;
51236;SDS011;37312;47.550;18.818;2022-09-09T17:49:02;3.47;;;2.10;;
51236;SDS011;37312;47.550;18.818;2022-09-09T17:51:31;1.40;;;1.30;;
51236;SDS011;37312;47.550;18.818;2022-09-09T17:53:59;1.30;;;1.20;;
51236;SDS011;37312;47.550;18.818;2022-09-09T17:56:28;1.95;;;1.17;;
51236;SDS011;37312;47.550;18.818;2022-09-09T17:58:57;2.25;;;1.50;;
51236;SDS011;37312;47.550;18.818;2022-09-09T18:01:25;3.22;;;1.65;;
51236;SDS011;37312;47.550;18.818;2022-09-09T18:03:53;3.10;;;1.58;;
51236;SDS011;37312;47.550;18.818;2022-09-09T18:06:23;3.53;;;1.40;;
51236;SDS011;37312;47.550;18.818;2022-09-09T18:08:53;2.97;;;1.73;;